Hlavní strana
METAR-TAF:

METAR-TAF

Letiště :

Tunis, Tunisko

zeměpisná šířka: 36-50N, zeměpisná délka: 010-14E, výška: 3 m

Aktuální stav počasí

Zpráva byla vytvořena před 48 minutami, v 12:30 UTC
Východní vítr 10 kt, proměnlivý mezi východoseverovýchodním a jihovýchodním
Teplota 27°C
Vlhkost vzduchu 32%
Tlak 1017 hPa
Viditelnost 10 km a více
Žádná oblačnost pod 1500 m, nevyskytují se cumulonimby.

METAR: DTTA 231230Z 10010KT 060V140 CAVOK 27/09 Q1017 NOSIG

Čas: 14:18 (13:18 UTC)

Předpověď počasí

Zpráva byla vytvořena před 2 hodinami a 18 minutami, v 11:00 UTC
Předpověď platná od 23 v 12 UTC do 24 v 12 UTC
Východní vítr 10 kt
Viditelnost 10 km a více
Skoro jasno ve výšce 2600 ft
Pravděpodobnost 40% :
Dočasný
od 23 v 15 UTC do 23 v 18 UTC
Východní vítr 15 kt s nárazy do 25 kt

TAF: DTTA 231100Z 2312/2412 08010KT 9999 FEW026 PROB40 TEMPO 2315/2318 09015G25KT

Stav a předpovědi počasí z více než 4 000 letišť (zprávy METAR a TAF).

Červené a žluté tečky na mapě představují dostupné meteorologické stanice.

Když kurzor umístíte na tečku, zobrazí se název stanice.

Pak kliknutím zobrazíte stav a předpověď počasí.

Chcete-li změnit mapu, kliknutím na zelené tlačítko se znaménkem +mapu přiblížíte, kliknutím na zelené tlačítko se znaménkem – mapu oddálíte a kliknutím na zelené šipky přejdete na sousední mapy.


METAR-TAF: